Time;durP1;ratioP1;P1;durP2;ratioP2;P2;SDS_P1;SDS_P2;PMS_P1;PMS_P2;Temp;Humidity;BMP_temperature;BMP_pressure;BME280_temperature;BME280_humidity;BME280_pressure;Samples;Min_cycle;Max_cycle;Signal;HPM_P1;HPM_P2
2022/05/11 00:01:19;;;;;;;9.87;8.87;;;;;;;;;;5075255;28;20432;-64
2022/05/11 00:03:45;;;;;;;9.60;8.70;;;;;;;;;;5075290;28;20888;-64
2022/05/11 00:06:11;;;;;;;9.27;8.37;;;;;;;;;;5074991;28;20458;-63
2022/05/11 00:08:37;;;;;;;9.50;8.57;;;;;;;;;;5057319;28;20433;-63
2022/05/11 00:11:04;;;;;;;9.87;8.90;;;;;;;;;;5075112;28;20423;-64
2022/05/11 00:13:30;;;;;;;10.73;8.30;;;;;;;;;;5075010;28;20491;-64
2022/05/11 00:15:57;;;;;;;8.57;7.73;;;;;;;;;;5074949;28;20425;-63
2022/05/11 00:18:23;;;;;;;9.63;8.53;;;;;;;;;;5074901;28;20469;-65
2022/05/11 00:20:49;;;;;;;8.03;7.23;;;;;;;;;;5074915;28;20404;-65
2022/05/11 00:23:15;;;;;;;8.83;7.90;;;;;;;;;;5074871;28;20393;-65
2022/05/11 00:25:44;;;;;;;8.93;7.87;;;;;;;;;;5074805;28;20421;-64
2022/05/11 00:28:10;;;;;;;7.90;7.10;;;;;;;;;;5074580;28;20427;-64
2022/05/11 00:30:36;;;;;;;8.90;7.83;;;;;;;;;;5074635;28;20413;-64
2022/05/11 00:33:02;;;;;;;8.40;7.00;;;;;;;;;;5074472;28;20404;-66
2022/05/11 00:35:29;;;;;;;8.27;7.23;;;;;;;;;;5056784;28;20425;-64
2022/05/11 00:37:55;;;;;;;7.47;6.77;;;;;;;;;;5074484;28;21098;-65
2022/05/11 00:40:22;;;;;;;9.40;7.00;;;;;;;;;;5056510;28;20405;-64
2022/05/11 00:42:48;;;;;;;7.77;6.33;;;;;;;;;;5074517;28;20409;-64
2022/05/11 00:45:15;;;;;;;9.00;6.87;;;;;;;;;;5074415;28;20424;-65
2022/05/11 00:47:48;;;;;;;7.30;6.50;;;;;;;;;;5056419;28;20417;-63
2022/05/11 00:50:24;;;;;;;7.90;7.10;;;;;;;;;;5074370;28;20751;-65
2022/05/11 00:52:50;;;;;;;7.03;6.33;;;;;;;;;;5074184;28;20470;-66
2022/05/11 00:55:27;;;;;;;7.47;6.77;;;;;;;;;;5074282;28;20409;-64
2022/05/11 00:57:53;;;;;;;8.00;7.07;;;;;;;;;;5073986;28;20974;-64
2022/05/11 01:00:20;;;;;;;7.60;6.90;;;;;;;;;;5074143;28;20400;-63
2022/05/11 01:02:49;;;;;;;7.40;6.70;;;;;;;;;;5074122;28;20904;-64
2022/05/11 01:05:15;;;;;;;9.80;6.60;;;;;;;;;;5074001;28;20409;-65
2022/05/11 01:07:41;;;;;;;7.50;6.70;;;;;;;;;;5073694;28;20864;-65
2022/05/11 01:10:09;;;;;;;10.60;6.73;;;;;;;;;;5074014;28;20512;-63
2022/05/11 01:12:54;;;;;;;7.50;6.80;;;;;;;;;;5073634;28;20413;-68
2022/05/11 01:15:21;;;;;;;8.80;7.73;;;;;;;;;;5073841;28;20476;-65
2022/05/11 01:17:47;;;;;;;7.60;6.80;;;;;;;;;;5073696;28;20479;-72
2022/05/11 01:20:22;;;;;;;14.83;7.83;;;;;;;;;;5073741;28;20521;-64
2022/05/11 01:22:56;;;;;;;8.13;7.20;;;;;;;;;;5055920;28;20947;-70
2022/05/11 01:25:23;;;;;;;8.97;6.80;;;;;;;;;;5073635;28;20408;-63
2022/05/11 01:27:49;;;;;;;8.17;7.03;;;;;;;;;;5073520;28;20412;-72
2022/05/11 01:30:22;;;;;;;7.80;7.00;;;;;;;;;;5073458;28;20411;-64
2022/05/11 01:32:52;;;;;;;7.80;7.00;;;;;;;;;;5073617;28;20397;-64
2022/05/11 01:35:33;;;;;;;7.67;6.80;;;;;;;;;;5073546;28;20440;-64
2022/05/11 01:38:18;;;;;;;6.73;6.13;;;;;;;;;;5073227;28;20483;-65
2022/05/11 01:40:44;;;;;;;11.73;7.07;;;;;;;;;;5072953;28;20462;-72
2022/05/11 01:43:17;;;;;;;7.27;6.53;;;;;;;;;;5073304;28;20495;-63
2022/05/11 01:45:43;;;;;;;8.10;7.00;;;;;;;;;;5073297;28;20528;-73
2022/05/11 01:48:09;;;;;;;7.67;6.20;;;;;;;;;;5073307;28;20495;-72
2022/05/11 01:50:35;;;;;;;8.27;6.67;;;;;;;;;;5073231;28;20913;-72
2022/05/11 01:53:01;;;;;;;11.13;7.07;;;;;;;;;;5055451;28;20424;-72
2022/05/11 01:55:27;;;;;;;7.13;6.43;;;;;;;;;;5073116;28;20404;-70
2022/05/11 01:57:53;;;;;;;7.30;6.60;;;;;;;;;;5072999;28;20621;-63
2022/05/11 02:00:19;;;;;;;7.83;7.03;;;;;;;;;;5073171;28;20409;-63
2022/05/11 02:02:45;;;;;;;9.20;6.77;;;;;;;;;;5073091;28;20413;-63
2022/05/11 02:07:56;;;;;;;9.07;7.50;;;;;;;;;;5072932;28;20452;-63
2022/05/11 02:10:23;;;;;;;9.27;7.17;;;;;;;;;;5072593;28;20409;-65
2022/05/11 02:12:49;;;;;;;7.60;6.53;;;;;;;;;;5073068;28;20393;-64
2022/05/11 02:15:16;;;;;;;7.87;6.87;;;;;;;;;;5073031;28;20415;-64
2022/05/11 02:17:43;;;;;;;7.63;6.90;;;;;;;;;;5072878;28;20467;-66
2022/05/11 02:20:09;;;;;;;10.00;7.43;;;;;;;;;;5072914;28;20763;-65
2022/05/11 02:22:36;;;;;;;7.57;6.77;;;;;;;;;;5073014;28;20403;-69
2022/05/11 02:25:02;;;;;;;8.43;7.20;;;;;;;;;;5054918;28;20413;-64
2022/05/11 02:27:28;;;;;;;8.27;6.60;;;;;;;;;;5072763;28;20950;-65
2022/05/11 02:29:54;;;;;;;7.70;6.90;;;;;;;;;;5072945;28;20412;-63
2022/05/11 02:32:20;;;;;;;9.03;7.57;;;;;;;;;;5072858;28;20397;-63
2022/05/11 02:37:30;;;;;;;10.13;7.00;;;;;;;;;;5072900;28;20521;-65
2022/05/11 02:39:56;;;;;;;7.37;6.60;;;;;;;;;;5072636;28;20462;-64
2022/05/11 02:42:22;;;;;;;7.53;6.73;;;;;;;;;;5072728;28;20405;-64
2022/05/11 02:44:48;;;;;;;7.13;6.07;;;;;;;;;;5072830;28;20413;-64
2022/05/11 02:47:15;;;;;;;8.23;6.57;;;;;;;;;;5072632;28;20413;-62
2022/05/11 02:49:41;;;;;;;9.73;7.90;;;;;;;;;;5072646;28;20424;-64
2022/05/11 02:52:07;;;;;;;7.90;7.00;;;;;;;;;;5074215;28;20432;-65
2022/05/11 02:54:33;;;;;;;9.80;6.37;;;;;;;;;;5076436;28;20420;-64
2022/05/11 02:56:59;;;;;;;8.07;7.27;;;;;;;;;;5076315;28;20472;-69
2022/05/11 02:59:25;;;;;;;7.57;6.87;;;;;;;;;;5076369;28;20408;-63
2022/05/11 03:01:52;;;;;;;8.50;7.37;;;;;;;;;;5076316;28;20860;-64
2022/05/11 03:04:18;;;;;;;9.57;6.97;;;;;;;;;;5076270;28;20418;-64
2022/05/11 03:06:47;;;;;;;7.10;6.40;;;;;;;;;;5076018;28;20460;-64
2022/05/11 03:09:16;;;;;;;7.83;6.87;;;;;;;;;;5076205;28;20411;-64
2022/05/11 03:11:43;;;;;;;8.00;7.20;;;;;;;;;;5075913;28;20419;-64
2022/05/11 03:14:09;;;;;;;6.37;5.77;;;;;;;;;;5076201;28;20413;-70
2022/05/11 03:16:38;;;;;;;7.90;6.80;;;;;;;;;;5075992;28;20802;-64
2022/05/11 03:19:05;;;;;;;7.20;6.50;;;;;;;;;;5076038;28;20955;-64
2022/05/11 03:21:31;;;;;;;10.13;6.93;;;;;;;;;;5075997;28;20508;-63
2022/05/11 03:23:57;;;;;;;7.80;7.00;;;;;;;;;;5075941;28;20477;-64
2022/05/11 03:26:24;;;;;;;7.90;7.10;;;;;;;;;;5075960;28;20419;-64
2022/05/11 03:28:50;;;;;;;7.07;6.37;;;;;;;;;;5075832;28;20443;-62
2022/05/11 03:31:17;;;;;;;7.50;6.23;;;;;;;;;;5075611;28;20420;-62
2022/05/11 03:36:28;;;;;;;7.17;6.43;;;;;;;;;;5075745;28;20446;-63
2022/05/11 03:38:53;;;;;;;8.00;6.30;;;;;;;;;;5075835;28;20421;-62
2022/05/11 03:41:20;;;;;;;8.10;6.23;;;;;;;;;;5075494;28;20495;-63
2022/05/11 03:43:46;;;;;;;7.93;6.60;;;;;;;;;;5075551;28;20459;-63
2022/05/11 03:46:12;;;;;;;7.23;6.53;;;;;;;;;;5075651;28;20405;-63
2022/05/11 03:48:38;;;;;;;7.63;6.87;;;;;;;;;;5075596;28;20454;-63
2022/05/11 03:51:04;;;;;;;7.83;6.60;;;;;;;;;;5075295;28;20408;-64
2022/05/11 03:53:31;;;;;;;8.23;6.80;;;;;;;;;;5075459;28;20409;-64
2022/05/11 03:55:57;;;;;;;7.83;6.80;;;;;;;;;;5075529;28;20947;-66
2022/05/11 03:58:23;;;;;;;8.40;7.20;;;;;;;;;;5075301;28;20472;-64
2022/05/11 04:00:49;;;;;;;7.77;6.97;;;;;;;;;;5075332;28;20404;-71
2022/05/11 04:03:15;;;;;;;7.47;6.77;;;;;;;;;;5074954;28;20493;-64
2022/05/11 04:05:41;;;;;;;7.73;6.43;;;;;;;;;;5075204;28;20401;-64
2022/05/11 04:08:07;;;;;;;7.80;7.00;;;;;;;;;;5075017;28;20460;-65
2022/05/11 04:10:33;;;;;;;8.20;6.77;;;;;;;;;;5075041;28;20444;-74
2022/05/11 04:13:03;;;;;;;7.43;6.60;;;;;;;;;;5075092;28;20397;-66
2022/05/11 04:15:29;;;;;;;7.83;7.03;;;;;;;;;;5075139;28;20397;-72
2022/05/11 04:17:56;;;;;;;10.13;6.40;;;;;;;;;;5074967;28;20597;-70
2022/05/11 04:20:22;;;;;;;7.97;6.47;;;;;;;;;;5074878;28;20747;-64
2022/05/11 04:22:48;;;;;;;7.70;6.50;;;;;;;;;;5074777;28;20480;-68
2022/05/11 04:25:15;;;;;;;8.47;7.50;;;;;;;;;;5074887;28;20424;-65
2022/05/11 04:27:42;;;;;;;7.90;7.10;;;;;;;;;;5074790;28;20441;-65
2022/05/11 04:30:08;;;;;;;7.63;6.33;;;;;;;;;;5056670;28;20416;-65
2022/05/11 04:32:34;;;;;;;9.50;7.30;;;;;;;;;;5074552;28;20516;-67
2022/05/11 04:35:00;;;;;;;7.17;6.40;;;;;;;;;;5074602;28;20399;-67
2022/05/11 04:37:27;;;;;;;7.33;6.60;;;;;;;;;;5074700;28;20838;-65
2022/05/11 04:39:53;;;;;;;10.47;6.80;;;;;;;;;;5074513;28;20401;-64
2022/05/11 04:42:19;;;;;;;7.23;6.50;;;;;;;;;;5074435;28;20408;-64
2022/05/11 04:44:45;;;;;;;7.80;7.00;;;;;;;;;;5074387;28;20416;-67
2022/05/11 04:47:13;;;;;;;7.07;6.37;;;;;;;;;;5074341;28;20396;-64
2022/05/11 04:49:40;;;;;;;9.40;6.40;;;;;;;;;;5074389;28;20403;-63
2022/05/11 04:52:07;;;;;;;8.40;6.77;;;;;;;;;;5074014;28;20416;-63
2022/05/11 04:54:37;;;;;;;9.23;6.30;;;;;;;;;;5074156;28;20405;-63
2022/05/11 04:57:03;;;;;;;9.10;7.27;;;;;;;;;;5073957;28;20483;-63
2022/05/11 04:59:29;;;;;;;7.63;6.30;;;;;;;;;;5074139;28;20405;-72
2022/05/11 05:01:57;;;;;;;6.80;6.20;;;;;;;;;;5073969;28;20427;-64
2022/05/11 05:04:23;;;;;;;10.07;7.07;;;;;;;;;;5074063;28;20394;-67
2022/05/11 05:06:49;;;;;;;7.03;6.33;;;;;;;;;;5073672;28;20461;-72
2022/05/11 05:09:15;;;;;;;7.80;6.13;;;;;;;;;;5073950;28;20739;-64
2022/05/11 05:11:41;;;;;;;7.73;6.57;;;;;;;;;;5073654;28;20408;-64
2022/05/11 05:14:08;;;;;;;7.27;6.43;;;;;;;;;;5073153;28;20408;-73
2022/05/11 05:16:34;;;;;;;8.03;6.73;;;;;;;;;;5073643;28;20903;-65
2022/05/11 05:19:01;;;;;;;7.00;5.93;;;;;;;;;;5073678;28;20448;-64
2022/05/11 05:21:27;;;;;;;9.00;5.97;;;;;;;;;;5073685;28;20405;-67
2022/05/11 05:23:53;;;;;;;8.70;7.03;;;;;;;;;;5073603;28;20440;-71
2022/05/11 05:26:19;;;;;;;7.20;6.50;;;;;;;;;;5073551;28;20396;-63
2022/05/11 05:31:31;;;;;;;6.83;5.73;;;;;;;;;;5073378;28;20407;-63
2022/05/11 05:34:01;;;;;;;7.30;6.50;;;;;;;;;;5073389;28;20466;-64
2022/05/11 05:36:31;;;;;;;7.10;6.33;;;;;;;;;;5073311;28;20388;-64
2022/05/11 05:39:00;;;;;;;7.67;6.23;;;;;;;;;;5073310;28;20775;-64
2022/05/11 05:41:27;;;;;;;6.83;6.13;;;;;;;;;;5073229;28;20404;-73
2022/05/11 05:43:53;;;;;;;7.10;5.83;;;;;;;;;;5073152;28;20919;-67
2022/05/11 05:46:19;;;;;;;7.37;6.40;;;;;;;;;;5073101;28;20899;-64
2022/05/11 05:48:46;;;;;;;6.83;6.13;;;;;;;;;;5073164;28;20409;-64
2022/05/11 05:51:13;;;;;;;7.07;6.37;;;;;;;;;;5073043;28;20415;-64
2022/05/11 05:53:40;;;;;;;7.30;6.60;;;;;;;;;;5073231;28;20400;-69
2022/05/11 05:56:06;;;;;;;9.83;6.50;;;;;;;;;;5073056;28;20458;-67
2022/05/11 05:58:32;;;;;;;7.93;5.67;;;;;;;;;;5073119;28;20563;-65
2022/05/11 06:00:58;;;;;;;8.90;6.33;;;;;;;;;;5073128;28;20399;-63
2022/05/11 06:03:26;;;;;;;6.60;5.80;;;;;;;;;;5073066;28;20400;-65
2022/05/11 06:05:52;;;;;;;7.90;6.30;;;;;;;;;;5073012;28;20403;-70
2022/05/11 06:08:19;;;;;;;7.03;5.97;;;;;;;;;;5072874;28;20456;-65
2022/05/11 06:10:46;;;;;;;7.70;5.70;;;;;;;;;;5072715;28;20396;-64
2022/05/11 06:13:16;;;;;;;6.57;5.90;;;;;;;;;;5072682;28;20977;-64
2022/05/11 06:15:42;;;;;;;8.10;7.20;;;;;;;;;;5072762;28;20400;-63
2022/05/11 06:18:09;;;;;;;6.80;6.20;;;;;;;;;;5072736;28;20496;-65
2022/05/11 06:20:36;;;;;;;7.07;6.20;;;;;;;;;;5072673;28;20416;-64
2022/05/11 06:23:03;;;;;;;6.83;6.10;;;;;;;;;;5073020;28;20409;-63
2022/05/11 06:25:30;;;;;;;7.50;6.33;;;;;;;;;;5073610;28;20400;-65
2022/05/11 06:27:58;;;;;;;8.27;6.30;;;;;;;;;;5076718;28;20448;-64
2022/05/11 06:30:24;;;;;;;7.47;6.57;;;;;;;;;;5076677;28;20473;-64
2022/05/11 06:32:50;;;;;;;13.53;7.30;;;;;;;;;;5076679;28;20416;-65
2022/05/11 06:35:16;;;;;;;6.70;6.10;;;;;;;;;;5076793;28;20393;-65
2022/05/11 06:37:44;;;;;;;7.03;6.03;;;;;;;;;;5076558;28;21000;-65
2022/05/11 06:40:10;;;;;;;7.67;6.70;;;;;;;;;;5076632;28;20432;-64
2022/05/11 06:42:36;;;;;;;7.67;5.87;;;;;;;;;;5076714;28;20950;-64
2022/05/11 06:45:05;;;;;;;6.43;5.47;;;;;;;;;;5076616;28;20405;-65
2022/05/11 06:47:31;;;;;;;6.70;5.97;;;;;;;;;;5076526;28;20499;-65
2022/05/11 06:49:57;;;;;;;6.20;5.60;;;;;;;;;;5076436;28;20499;-65
2022/05/11 06:52:23;;;;;;;6.40;5.80;;;;;;;;;;5076228;28;20911;-64
2022/05/11 07:00:18;;;;;;;6.70;5.77;;;;;;;;;;5076255;28;20525;-65
2022/05/11 07:02:44;;;;;;;6.13;5.63;;;;;;;;;;5076258;28;20416;-64
2022/05/11 07:05:10;;;;;;;6.47;5.87;;;;;;;;;;5076258;28;20392;-64
2022/05/11 07:07:36;;;;;;;7.93;6.30;;;;;;;;;;5076081;28;20471;-65
2022/05/11 07:10:04;;;;;;;6.20;5.03;;;;;;;;;;5076049;28;20423;-66
2022/05/11 07:12:37;;;;;;;6.33;5.73;;;;;;;;;;5075875;28;20411;-65
2022/05/11 07:15:05;;;;;;;6.40;5.80;;;;;;;;;;5076096;28;20389;-64
2022/05/11 07:17:31;;;;;;;5.53;5.03;;;;;;;;;;5075870;28;20474;-65
2022/05/11 07:19:58;;;;;;;5.60;5.10;;;;;;;;;;5075920;28;20437;-64
2022/05/11 07:22:24;;;;;;;5.83;5.10;;;;;;;;;;5075936;28;20400;-63
2022/05/11 07:24:50;;;;;;;5.20;4.80;;;;;;;;;;5075980;28;20393;-66
2022/05/11 07:27:17;;;;;;;5.80;5.30;;;;;;;;;;5075831;28;20466;-65
2022/05/11 07:29:43;;;;;;;6.20;5.40;;;;;;;;;;5075665;28;20396;-65
2022/05/11 07:32:10;;;;;;;11.97;5.30;;;;;;;;;;5075621;28;20425;-65
2022/05/11 07:34:36;;;;;;;6.10;5.50;;;;;;;;;;5075712;28;20393;-65
2022/05/11 07:37:02;;;;;;;5.70;5.20;;;;;;;;;;5074800;28;20456;-64
2022/05/11 07:39:28;;;;;;;6.43;5.23;;;;;;;;;;5075456;28;20470;-65
2022/05/11 07:41:55;;;;;;;6.40;5.47;;;;;;;;;;5075325;28;20793;-65
2022/05/11 07:44:21;;;;;;;5.40;4.90;;;;;;;;;;5075477;28;20433;-64
2022/05/11 07:46:47;;;;;;;6.00;5.50;;;;;;;;;;5075605;28;20401;-65
2022/05/11 07:49:14;;;;;;;6.53;5.13;;;;;;;;;;5075321;28;20392;-68
2022/05/11 07:51:41;;;;;;;5.93;5.43;;;;;;;;;;5075282;28;20416;-64
2022/05/11 07:54:08;;;;;;;7.40;5.10;;;;;;;;;;5075332;28;20450;-66
2022/05/11 08:02:04;;;;;;;5.00;4.50;;;;;;;;;;5075244;28;20918;-66
2022/05/11 08:04:30;;;;;;;4.93;4.50;;;;;;;;;;5074978;28;20408;-65
2022/05/11 08:06:56;;;;;;;5.60;5.20;;;;;;;;;;5067359;28;20490;-64
2022/05/11 08:09:22;;;;;;;5.27;4.33;;;;;;;;;;5095300;28;20429;-64
2022/05/11 08:11:48;;;;;;;5.50;4.60;;;;;;;;;;5095085;28;20395;-64
2022/05/11 08:14:14;;;;;;;5.27;4.80;;;;;;;;;;5095240;28;20781;-64
2022/05/11 08:16:41;;;;;;;5.47;4.97;;;;;;;;;;5095016;28;20408;-65
2022/05/11 08:19:07;;;;;;;4.93;4.53;;;;;;;;;;5095198;28;20416;-64
2022/05/11 08:21:34;;;;;;;5.50;4.83;;;;;;;;;;5094991;28;20422;-63
2022/05/11 08:24:01;;;;;;;5.57;5.17;;;;;;;;;;5094982;28;20473;-65
2022/05/11 08:26:27;;;;;;;5.60;4.97;;;;;;;;;;5094944;28;20466;-63
2022/05/11 08:28:53;;;;;;;5.27;4.87;;;;;;;;;;5094969;28;20408;-65
2022/05/11 08:34:04;;;;;;;6.53;4.90;;;;;;;;;;5094913;28;20896;-64
2022/05/11 08:36:30;;;;;;;5.13;4.73;;;;;;;;;;5094725;28;20926;-64
2022/05/11 08:38:58;;;;;;;7.13;4.57;;;;;;;;;;5094749;28;20468;-63
2022/05/11 08:41:29;;;;;;;6.47;5.53;;;;;;;;;;5094581;28;20403;-67
2022/05/11 08:44:00;;;;;;;5.70;4.97;;;;;;;;;;5094535;28;20431;-65
2022/05/11 08:46:47;;;;;;;6.67;5.17;;;;;;;;;;5094583;28;20404;-65
2022/05/11 08:49:21;;;;;;;5.50;5.10;;;;;;;;;;5093337;28;20404;-64
2022/05/11 08:51:58;;;;;;;5.30;4.90;;;;;;;;;;5094418;28;20411;-65
2022/05/11 08:54:34;;;;;;;7.80;5.30;;;;;;;;;;5094540;28;20502;-66
2022/05/11 08:57:01;;;;;;;5.90;5.07;;;;;;;;;;5094276;28;20503;-65
2022/05/11 08:59:29;;;;;;;8.93;6.07;;;;;;;;;;5094350;28;20776;-65
2022/05/11 09:01:59;;;;;;;5.90;5.33;;;;;;;;;;5094360;28;20392;-64
2022/05/11 09:04:31;;;;;;;6.07;5.50;;;;;;;;;;5094311;28;20404;-64
2022/05/11 09:06:57;;;;;;;9.20;7.70;;;;;;;;;;5092890;28;20464;-66
2022/05/11 09:09:24;;;;;;;9.43;6.50;;;;;;;;;;5093013;28;20424;-65
2022/05/11 09:11:52;;;;;;;6.73;5.73;;;;;;;;;;5094018;28;20400;-64
2022/05/11 09:14:29;;;;;;;6.17;5.60;;;;;;;;;;5094160;28;20408;-64
2022/05/11 09:16:55;;;;;;;6.97;6.27;;;;;;;;;;5093955;28;20443;-65
2022/05/11 09:19:32;;;;;;;5.77;5.27;;;;;;;;;;5093938;28;20902;-64
2022/05/11 09:21:58;;;;;;;6.27;5.67;;;;;;;;;;5093929;28;20407;-64
2022/05/11 09:24:32;;;;;;;6.70;6.20;;;;;;;;;;5093908;28;20528;-65
2022/05/11 09:27:03;;;;;;;6.67;6.07;;;;;;;;;;5093653;28;20931;-65
2022/05/11 09:29:35;;;;;;;6.40;6.00;;;;;;;;;;5093864;28;20415;-65
2022/05/11 09:32:21;;;;;;;6.20;5.70;;;;;;;;;;5093617;28;20479;-64
2022/05/11 09:34:47;;;;;;;7.10;6.50;;;;;;;;;;5093621;28;20967;-65
2022/05/11 09:37:25;;;;;;;6.60;6.00;;;;;;;;;;5093557;28;20459;-64
2022/05/11 09:39:53;;;;;;;6.80;5.70;;;;;;;;;;5092344;28;20490;-65
2022/05/11 09:42:20;;;;;;;7.30;6.70;;;;;;;;;;5093558;28;20403;-64
2022/05/11 09:44:49;;;;;;;7.40;6.37;;;;;;;;;;5093599;28;20396;-64
2022/05/11 09:47:27;;;;;;;6.93;6.10;;;;;;;;;;5093524;28;20959;-64
2022/05/11 09:49:53;;;;;;;7.00;6.40;;;;;;;;;;5093480;28;20400;-64
2022/05/11 09:52:33;;;;;;;6.67;6.17;;;;;;;;;;5092109;28;20487;-65
2022/05/11 09:55:00;;;;;;;7.20;6.60;;;;;;;;;;5093504;28;20964;-64
2022/05/11 09:57:28;;;;;;;7.87;7.20;;;;;;;;;;5093175;28;20984;-64
2022/05/11 10:00:12;;;;;;;7.07;6.50;;;;;;;;;;5093122;28;20480;-64
2022/05/11 10:02:40;;;;;;;7.67;6.60;;;;;;;;;;5093336;28;20982;-65
2022/05/11 10:05:12;;;;;;;5.93;5.40;;;;;;;;;;5093343;28;20414;-65
2022/05/11 10:07:46;;;;;;;8.27;6.30;;;;;;;;;;5080262;28;20959;-64
2022/05/11 10:10:27;;;;;;;7.53;6.87;;;;;;;;;;5073018;28;20408;-63
2022/05/11 10:12:54;;;;;;;6.57;6.07;;;;;;;;;;5072906;28;20917;-65
2022/05/11 10:24:03;;;;;;;7.03;6.40;;;;;;;;;;5073105;28;20459;-66
2022/05/11 10:26:40;;;;;;;6.63;6.13;;;;;;;;;;5072698;28;20427;-64
2022/05/11 10:29:24;;;;;;;6.77;6.20;;;;;;;;;;5072757;28;20401;-65
2022/05/11 10:32:08;;;;;;;6.13;5.53;;;;;;;;;;5072588;28;20416;-65
2022/05/11 10:35:00;;;;;;;7.33;6.63;;;;;;;;;;5072641;28;20412;-67
2022/05/11 10:37:34;;;;;;;7.00;5.50;;;;;;;;;;5068994;28;20480;-65
2022/05/11 10:40:19;;;;;;;6.63;6.00;;;;;;;;;;5072498;28;20412;-65
2022/05/11 10:42:49;;;;;;;6.07;5.60;;;;;;;;;;5072510;28;20487;-65
2022/05/11 10:45:15;;;;;;;6.53;5.97;;;;;;;;;;5072438;28;20409;-65
2022/05/11 10:47:52;;;;;;;5.73;5.33;;;;;;;;;;5072624;28;20424;-64
2022/05/11 10:50:21;;;;;;;6.13;5.63;;;;;;;;;;5072531;28;20424;-65
2022/05/11 10:52:47;;;;;;;6.20;5.80;;;;;;;;;;5072411;28;20419;-65
2022/05/11 10:55:26;;;;;;;5.63;5.07;;;;;;;;;;5072525;28;20401;-66
2022/05/11 10:58:07;;;;;;;5.27;4.87;;;;;;;;;;5072386;28;20562;-63
2022/05/11 11:00:37;;;;;;;5.87;5.37;;;;;;;;;;5072304;28;20982;-66
2022/05/11 11:03:03;;;;;;;6.37;5.87;;;;;;;;;;5072341;28;20397;-64
2022/05/11 11:09:09;;;;;;;5.90;5.40;;;;;;;;;;5046764;28;20517;-64
2022/05/11 11:11:48;;;;;;;6.10;5.70;;;;;;;;;;5025804;28;20416;-66
2022/05/11 11:14:16;;;;;;;5.67;5.27;;;;;;;;;;5075608;28;20408;-65
2022/05/11 11:16:42;;;;;;;6.20;5.20;;;;;;;;;;5075925;28;20467;-64
2022/05/11 11:19:10;;;;;;;6.13;5.73;;;;;;;;;;5075949;28;20895;-66
2022/05/11 11:21:40;;;;;;;5.87;5.37;;;;;;;;;;5075928;28;20829;-64
2022/05/11 11:24:17;;;;;;;6.13;5.57;;;;;;;;;;5075934;28;20428;-65
2022/05/11 11:26:46;;;;;;;6.17;5.40;;;;;;;;;;5075900;28;20507;-65
2022/05/11 11:29:12;;;;;;;6.10;5.60;;;;;;;;;;5075806;28;20428;-64
2022/05/11 11:31:58;;;;;;;6.00;5.27;;;;;;;;;;5057696;28;20419;-67
2022/05/11 11:34:29;;;;;;;6.13;5.63;;;;;;;;;;5058883;28;20415;-70
2022/05/11 11:36:56;;;;;;;5.60;5.10;;;;;;;;;;5075490;28;20616;-69
2022/05/11 11:39:40;;;;;;;6.20;5.80;;;;;;;;;;5075577;28;20420;-67
2022/05/11 11:42:07;;;;;;;7.07;6.00;;;;;;;;;;5075481;28;20381;-65
2022/05/11 11:44:41;;;;;;;7.90;5.97;;;;;;;;;;5075469;28;20409;-64
2022/05/11 11:47:26;;;;;;;5.70;5.30;;;;;;;;;;5075341;28;20518;-71
2022/05/11 11:49:53;;;;;;;5.87;5.40;;;;;;;;;;5075370;28;20404;-66
2022/05/11 11:52:40;;;;;;;5.70;5.30;;;;;;;;;;5075297;28;20389;-71
2022/05/11 11:55:30;;;;;;;5.70;5.30;;;;;;;;;;5075316;28;20408;-72
2022/05/11 11:57:57;;;;;;;6.37;5.77;;;;;;;;;;5063078;28;20529;-65
2022/05/11 12:00:25;;;;;;;7.33;5.20;;;;;;;;;;5075137;28;21470;-65
2022/05/11 12:02:52;;;;;;;5.90;5.40;;;;;;;;;;5075148;28;20405;-70
2022/05/11 12:05:27;;;;;;;6.03;5.43;;;;;;;;;;5075154;28;20405;-64
2022/05/11 12:16:54;;;;;;;5.70;5.13;;;;;;;;;;5074996;28;20454;-68
2022/05/11 12:19:22;;;;;;;6.73;4.80;;;;;;;;;;5074849;28;20780;-69
2022/05/11 12:22:06;;;;;;;8.63;5.17;;;;;;;;;;5074886;28;20416;-73
2022/05/11 12:24:34;;;;;;;5.07;4.57;;;;;;;;;;5074477;28;20401;-68
2022/05/11 12:27:05;;;;;;;4.60;4.30;;;;;;;;;;5074706;28;20424;-75
2022/05/11 12:32:22;;;;;;;7.37;5.00;;;;;;;;;;5074681;28;20446;-73
2022/05/11 12:34:48;;;;;;;5.23;4.23;;;;;;;;;;5074606;28;20464;-75
2022/05/11 12:37:28;;;;;;;4.50;4.03;;;;;;;;;;5074510;28;20460;-73
2022/05/11 12:40:00;;;;;;;4.50;4.20;;;;;;;;;;5074322;28;20431;-72
2022/05/11 12:42:30;;;;;;;5.10;4.10;;;;;;;;;;5074163;28;20482;-67
2022/05/11 12:44:57;;;;;;;5.33;3.87;;;;;;;;;;5074133;28;20405;-69
2022/05/11 12:47:23;;;;;;;4.37;3.83;;;;;;;;;;5074277;28;20407;-71
2022/05/11 12:49:49;;;;;;;4.53;4.13;;;;;;;;;;5074162;28;20961;-71
2022/05/11 12:52:17;;;;;;;5.40;4.10;;;;;;;;;;5074087;28;20922;-72
2022/05/11 12:54:54;;;;;;;4.77;4.37;;;;;;;;;;5074480;28;20780;-70
2022/05/11 12:57:20;;;;;;;9.33;4.53;;;;;;;;;;5056186;28;20464;-68
2022/05/11 12:59:53;;;;;;;4.93;4.63;;;;;;;;;;5074240;28;20955;-67
2022/05/11 13:02:26;;;;;;;5.20;4.70;;;;;;;;;;5056243;28;20401;-70
2022/05/11 13:04:52;;;;;;;4.77;4.37;;;;;;;;;;5073976;28;20499;-68
2022/05/11 13:07:23;;;;;;;6.07;3.80;;;;;;;;;;5073810;28;20464;-67
2022/05/11 13:09:51;;;;;;;4.37;4.07;;;;;;;;;;5074012;28;20397;-73
2022/05/11 13:12:17;;;;;;;4.67;4.20;;;;;;;;;;5073752;28;20419;-73
2022/05/11 13:14:45;;;;;;;4.30;3.90;;;;;;;;;;5073805;28;20466;-72
2022/05/11 13:17:18;;;;;;;11.00;4.20;;;;;;;;;;5073686;28;20522;-74
2022/05/11 13:19:51;;;;;;;4.30;4.03;;;;;;;;;;5073667;28;20408;-71
2022/05/11 13:22:22;;;;;;;4.17;3.70;;;;;;;;;;5073897;28;20393;-68
2022/05/11 13:24:51;;;;;;;4.20;3.93;;;;;;;;;;5073789;28;20420;-73
2022/05/11 13:27:34;;;;;;;4.93;4.43;;;;;;;;;;5073652;28;20927;-71
2022/05/11 13:30:20;;;;;;;4.80;4.30;;;;;;;;;;5073403;28;20424;-73
2022/05/11 13:32:51;;;;;;;4.37;3.97;;;;;;;;;;5073409;28;20824;-75
2022/05/11 13:35:17;;;;;;;4.40;4.10;;;;;;;;;;5074757;28;20417;-67
2022/05/11 13:37:53;;;;;;;4.90;4.50;;;;;;;;;;5079426;28;20500;-75
2022/05/11 13:40:26;;;;;;;4.83;4.10;;;;;;;;;;5082044;28;20461;-76
2022/05/11 13:42:52;;;;;;;3.97;3.67;;;;;;;;;;5085003;28;20473;-74
2022/05/11 13:45:20;;;;;;;5.50;4.20;;;;;;;;;;5083363;28;20892;-68
2022/05/11 13:50:38;;;;;;;4.67;4.27;;;;;;;;;;5077823;28;20906;-77
2022/05/11 13:53:13;;;;;;;11.40;5.00;;;;;;;;;;5078160;28;20409;-74
2022/05/11 13:55:40;;;;;;;4.30;3.90;;;;;;;;;;5073246;28;20426;-74
2022/05/11 13:58:25;;;;;;;5.07;4.37;;;;;;;;;;5072859;28;20511;-71
2022/05/11 14:00:53;;;;;;;4.73;4.43;;;;;;;;;;5073197;28;20462;-72
2022/05/11 14:03:20;;;;;;;3.97;3.77;;;;;;;;;;5073134;28;20485;-70
2022/05/11 14:05:46;;;;;;;6.00;4.07;;;;;;;;;;5073060;28;20762;-71
2022/05/11 14:08:12;;;;;;;4.73;4.33;;;;;;;;;;5072923;28;20543;-74
2022/05/11 14:10:39;;;;;;;4.57;4.10;;;;;;;;;;5072993;28;20389;-73
2022/05/11 14:13:05;;;;;;;4.70;4.33;;;;;;;;;;5073068;28;20400;-67
2022/05/11 14:15:31;;;;;;;4.33;4.13;;;;;;;;;;5072739;28;20466;-68
2022/05/11 14:17:57;;;;;;;3.90;3.70;;;;;;;;;;5072805;28;20456;-73
2022/05/11 14:20:26;;;;;;;4.77;4.37;;;;;;;;;;5073004;28;20400;-67
2022/05/11 14:22:52;;;;;;;5.33;4.80;;;;;;;;;;5072903;28;20408;-70
2022/05/11 14:25:19;;;;;;;7.00;4.50;;;;;;;;;;5072908;28;20894;-70
2022/05/11 14:27:46;;;;;;;5.40;4.10;;;;;;;;;;5072875;28;20431;-76
2022/05/11 14:30:13;;;;;;;6.67;4.23;;;;;;;;;;5072862;28;20547;-66
2022/05/11 14:32:44;;;;;;;5.27;4.00;;;;;;;;;;5072718;28;20396;-69
2022/05/11 14:35:12;;;;;;;4.43;4.13;;;;;;;;;;5072605;28;20488;-71
2022/05/11 14:37:39;;;;;;;4.10;3.80;;;;;;;;;;5072765;28;20471;-71
2022/05/11 14:40:06;;;;;;;5.23;4.17;;;;;;;;;;5072733;28;20409;-71
2022/05/11 14:42:33;;;;;;;4.83;4.30;;;;;;;;;;5072863;28;20405;-66
2022/05/11 14:44:59;;;;;;;4.40;4.20;;;;;;;;;;5072658;28;20918;-64
2022/05/11 14:47:25;;;;;;;6.93;4.00;;;;;;;;;;5074869;28;20540;-65
2022/05/11 14:49:51;;;;;;;5.27;4.00;;;;;;;;;;5076577;28;20989;-65
2022/05/11 14:52:17;;;;;;;4.50;4.10;;;;;;;;;;5076404;28;20762;-67
2022/05/11 14:54:44;;;;;;;4.60;3.97;;;;;;;;;;5076554;28;20419;-70
2022/05/11 15:02:41;;;;;;;4.77;4.47;;;;;;;;;;5076829;28;20399;-72
2022/05/11 15:05:08;;;;;;;5.73;5.33;;;;;;;;;;5058463;28;20458;-76
2022/05/11 15:07:35;;;;;;;9.03;4.60;;;;;;;;;;5076126;28;20464;-74
2022/05/11 15:10:01;;;;;;;5.87;5.37;;;;;;;;;;5076278;28;20436;-71
2022/05/11 15:15:12;;;;;;;5.40;4.60;;;;;;;;;;5076166;28;20412;-73
2022/05/11 15:17:39;;;;;;;4.50;3.90;;;;;;;;;;5075965;28;20459;-75
2022/05/11 15:20:06;;;;;;;6.97;5.07;;;;;;;;;;5075842;28;20412;-74
2022/05/11 15:22:33;;;;;;;4.80;4.33;;;;;;;;;;5075873;28;20933;-76
2022/05/11 15:24:59;;;;;;;5.40;4.90;;;;;;;;;;5075778;28;20419;-73
2022/05/11 15:27:25;;;;;;;5.57;5.10;;;;;;;;;;5075876;28;20499;-72
2022/05/11 15:29:51;;;;;;;7.90;4.80;;;;;;;;;;5075607;28;20417;-71
2022/05/11 15:32:21;;;;;;;5.23;4.93;;;;;;;;;;5075653;28;20473;-74
2022/05/11 15:34:48;;;;;;;6.03;4.87;;;;;;;;;;5075381;28;20799;-72
2022/05/11 15:37:14;;;;;;;5.63;4.40;;;;;;;;;;5075459;28;20457;-77
2022/05/11 15:39:40;;;;;;;5.43;4.50;;;;;;;;;;5075627;28;20416;-69
2022/05/11 15:42:07;;;;;;;6.30;4.60;;;;;;;;;;5075554;28;20466;-67
2022/05/11 15:44:33;;;;;;;5.43;4.90;;;;;;;;;;5075505;28;20401;-72
2022/05/11 15:46:59;;;;;;;4.93;4.57;;;;;;;;;;5057600;28;20413;-67
2022/05/11 15:49:25;;;;;;;4.90;4.50;;;;;;;;;;5075631;28;20403;-71
2022/05/11 15:51:51;;;;;;;4.30;3.90;;;;;;;;;;5075108;28;20424;-73